Time;durP1;ratioP1;P1;durP2;ratioP2;P2;SDS_P1;SDS_P2;PMS_P1;PMS_P2;Temp;Humidity;BMP_temperature;BMP_pressure;BME280_temperature;BME280_humidity;BME280_pressure;Samples;Min_cycle;Max_cycle;Signal;HPM_P1;HPM_P2
2022/04/21 00:00:08;;;;;;;5.47;1.23;;;;;;;;;;5005173;28;20051;-71
2022/04/21 00:02:34;;;;;;;2.80;1.20;;;;;;;;;;5005432;28;20222;-71
2022/04/21 00:05:00;;;;;;;2.95;1.27;;;;;;;;;;4989956;28;20197;-71
2022/04/21 00:07:26;;;;;;;1.90;1.20;;;;;;;;;;4989831;28;20133;-71
2022/04/21 00:09:53;;;;;;;2.53;1.60;;;;;;;;;;4989557;28;20057;-72
2022/04/21 00:12:19;;;;;;;3.33;1.42;;;;;;;;;;4990051;28;20046;-71
2022/04/21 00:14:45;;;;;;;2.28;1.25;;;;;;;;;;4989101;28;20050;-71
2022/04/21 00:17:11;;;;;;;2.00;1.13;;;;;;;;;;5004898;28;20062;-72
2022/04/21 00:19:38;;;;;;;5.82;1.75;;;;;;;;;;4990081;28;20050;-71
2022/04/21 00:24:51;;;;;;;2.63;1.25;;;;;;;;;;4989701;28;20180;-72
2022/04/21 00:27:18;;;;;;;3.30;1.20;;;;;;;;;;4989670;28;20557;-71
2022/04/21 00:29:44;;;;;;;5.03;1.40;;;;;;;;;;4989112;28;20081;-72
2022/04/21 00:32:11;;;;;;;2.30;1.10;;;;;;;;;;4989480;28;20149;-72
2022/04/21 00:34:37;;;;;;;3.38;1.27;;;;;;;;;;4989437;28;20049;-71
2022/04/21 00:37:03;;;;;;;2.78;1.10;;;;;;;;;;5004579;28;20051;-71
2022/04/21 00:39:33;;;;;;;2.22;1.33;;;;;;;;;;5004518;28;20046;-72
2022/04/21 00:42:00;;;;;;;2.22;1.27;;;;;;;;;;4988643;28;20156;-71
2022/04/21 00:44:26;;;;;;;2.63;1.20;;;;;;;;;;4989464;28;20185;-70
2022/04/21 00:46:53;;;;;;;4.35;1.42;;;;;;;;;;4989368;28;20042;-71
2022/04/21 00:49:21;;;;;;;3.42;1.40;;;;;;;;;;4989607;28;20045;-72
2022/04/21 00:51:47;;;;;;;2.50;1.38;;;;;;;;;;4989313;28;20053;-71
2022/04/21 00:54:13;;;;;;;2.78;1.20;;;;;;;;;;4988768;28;20439;-71
2022/04/21 00:56:40;;;;;;;1.30;0.98;;;;;;;;;;5004279;28;20129;-71
2022/04/21 00:59:07;;;;;;;3.63;1.10;;;;;;;;;;4988102;28;20042;-71
2022/04/21 01:04:19;;;;;;;1.83;1.00;;;;;;;;;;4988907;28;20882;-71
2022/04/21 01:06:45;;;;;;;2.92;1.20;;;;;;;;;;5004529;28;20405;-71
2022/04/21 01:09:12;;;;;;;3.42;1.33;;;;;;;;;;4989577;28;20616;-72
2022/04/21 01:11:39;;;;;;;3.30;1.40;;;;;;;;;;4989238;28;20055;-72
2022/04/21 01:14:05;;;;;;;3.75;1.25;;;;;;;;;;4989038;28;20038;-72
2022/04/21 01:16:31;;;;;;;4.55;1.30;;;;;;;;;;4988818;28;20046;-72
2022/04/21 01:18:57;;;;;;;2.70;1.27;;;;;;;;;;5004260;28;20057;-72
2022/04/21 01:21:23;;;;;;;7.75;1.20;;;;;;;;;;4989363;28;20462;-72
2022/04/21 01:23:49;;;;;;;3.15;1.20;;;;;;;;;;4988521;28;20053;-72
2022/04/21 01:26:17;;;;;;;2.15;1.23;;;;;;;;;;4991938;28;20053;-72
2022/04/21 01:28:45;;;;;;;4.80;1.50;;;;;;;;;;4992884;28;20455;-70
2022/04/21 01:31:11;;;;;;;2.13;1.20;;;;;;;;;;4993033;28;20057;-71
2022/04/21 01:33:38;;;;;;;7.00;2.03;;;;;;;;;;4992965;28;20042;-70
2022/04/21 01:36:05;;;;;;;11.23;1.50;;;;;;;;;;4992510;28;20503;-73
2022/04/21 01:41:16;;;;;;;5.82;1.65;;;;;;;;;;4992485;28;20050;-72
2022/04/21 01:43:43;;;;;;;5.28;1.50;;;;;;;;;;4992457;28;20046;-71
2022/04/21 01:46:09;;;;;;;5.28;1.45;;;;;;;;;;4992818;28;20046;-72
2022/04/21 01:48:36;;;;;;;4.38;1.48;;;;;;;;;;4992141;28;20529;-72
2022/04/21 01:51:02;;;;;;;4.38;1.60;;;;;;;;;;4992406;28;20042;-72
2022/04/21 01:53:28;;;;;;;6.65;1.70;;;;;;;;;;4992526;28;20396;-72
2022/04/21 01:55:55;;;;;;;5.85;1.60;;;;;;;;;;4992221;28;20467;-72
2022/04/21 01:58:21;;;;;;;3.47;1.77;;;;;;;;;;4992372;28;20050;-72
2022/04/21 02:00:47;;;;;;;2.95;1.30;;;;;;;;;;4992293;28;20046;-72
2022/04/21 02:03:13;;;;;;;5.53;1.95;;;;;;;;;;4991959;28;20137;-72
2022/04/21 02:05:39;;;;;;;3.30;1.55;;;;;;;;;;4992314;28;20065;-71
2022/04/21 02:08:05;;;;;;;6.07;2.08;;;;;;;;;;4992008;28;20431;-71
2022/04/21 02:10:31;;;;;;;4.70;1.30;;;;;;;;;;4992075;28;20050;-71
2022/04/21 02:12:57;;;;;;;2.35;1.30;;;;;;;;;;4991892;28;20164;-71
2022/04/21 02:15:24;;;;;;;3.85;1.75;;;;;;;;;;4993007;28;20492;-71
2022/04/21 02:17:50;;;;;;;3.63;1.30;;;;;;;;;;4993179;28;20449;-72
2022/04/21 02:20:17;;;;;;;5.75;1.42;;;;;;;;;;4992862;28;20437;-71
2022/04/21 02:22:44;;;;;;;3.25;1.35;;;;;;;;;;5006799;28;20050;-71
2022/04/21 02:25:11;;;;;;;2.50;1.50;;;;;;;;;;4992602;28;20960;-72
2022/04/21 02:27:38;;;;;;;3.78;1.60;;;;;;;;;;4992188;28;20054;-72
2022/04/21 02:30:05;;;;;;;6.90;1.65;;;;;;;;;;5007157;28;20152;-73
2022/04/21 02:32:31;;;;;;;7.13;1.83;;;;;;;;;;4991908;28;20061;-72
2022/04/21 02:34:57;;;;;;;3.42;1.77;;;;;;;;;;4991710;28;20054;-72
2022/04/21 02:37:23;;;;;;;5.80;2.13;;;;;;;;;;4989967;28;20456;-72
2022/04/21 02:39:49;;;;;;;4.03;1.70;;;;;;;;;;5006837;28;20496;-72
2022/04/21 02:42:16;;;;;;;1.90;1.20;;;;;;;;;;4991699;28;20043;-72
2022/04/21 02:44:42;;;;;;;4.32;1.40;;;;;;;;;;4991412;28;20141;-70
2022/04/21 02:47:09;;;;;;;5.90;1.50;;;;;;;;;;4991660;28;20050;-70
2022/04/21 02:49:36;;;;;;;6.18;1.60;;;;;;;;;;5006033;28;20492;-70
2022/04/21 02:52:04;;;;;;;3.40;1.52;;;;;;;;;;4991135;28;20522;-70
2022/04/21 02:57:21;;;;;;;4.38;1.60;;;;;;;;;;4991118;28;20570;-71
2022/04/21 02:59:51;;;;;;;2.40;1.42;;;;;;;;;;4991484;28;20074;-71
2022/04/21 03:02:18;;;;;;;4.15;1.50;;;;;;;;;;5005916;28;20050;-70
2022/04/21 03:04:44;;;;;;;6.32;1.95;;;;;;;;;;4991165;28;20064;-71
2022/04/21 03:07:10;;;;;;;9.80;2.22;;;;;;;;;;4990083;28;20052;-72
2022/04/21 03:09:36;;;;;;;7.55;1.75;;;;;;;;;;4990373;28;20042;-72
2022/04/21 03:12:08;;;;;;;10.38;1.52;;;;;;;;;;4989849;28;20042;-71
2022/04/21 03:14:36;;;;;;;12.07;2.25;;;;;;;;;;4990809;28;20050;-72
2022/04/21 03:17:02;;;;;;;5.13;1.88;;;;;;;;;;4990898;28;20575;-71
2022/04/21 03:19:28;;;;;;;3.63;1.67;;;;;;;;;;4990944;28;20050;-72
2022/04/21 03:24:39;;;;;;;4.90;1.80;;;;;;;;;;4990307;28;20113;-70
2022/04/21 03:27:05;;;;;;;3.63;1.80;;;;;;;;;;4990771;28;20483;-71
2022/04/21 03:29:32;;;;;;;4.78;1.83;;;;;;;;;;4990990;28;20042;-71
2022/04/21 03:31:58;;;;;;;5.00;1.55;;;;;;;;;;4991121;28;20119;-71
2022/04/21 03:34:25;;;;;;;4.22;1.50;;;;;;;;;;4990785;28;20129;-71
2022/04/21 03:36:51;;;;;;;4.50;1.50;;;;;;;;;;4989367;28;20173;-72
2022/04/21 03:39:20;;;;;;;5.15;1.60;;;;;;;;;;5005460;28;20682;-72
2022/04/21 03:41:46;;;;;;;2.97;1.50;;;;;;;;;;4990530;28;20054;-71
2022/04/21 03:44:12;;;;;;;5.95;1.85;;;;;;;;;;4990448;28;20054;-71
2022/04/21 03:46:39;;;;;;;4.25;1.67;;;;;;;;;;4990227;28;20050;-71
2022/04/21 03:49:05;;;;;;;4.70;1.73;;;;;;;;;;4990293;28;20476;-72
2022/04/21 03:51:31;;;;;;;4.63;1.77;;;;;;;;;;5005062;28;20077;-72
2022/04/21 03:53:58;;;;;;;6.10;2.40;;;;;;;;;;4990063;28;20054;-72
2022/04/21 03:56:26;;;;;;;3.35;2.15;;;;;;;;;;4990058;28;20046;-72
2022/04/21 03:58:52;;;;;;;2.55;1.55;;;;;;;;;;4989966;28;20050;-71
2022/04/21 04:01:19;;;;;;;3.72;1.80;;;;;;;;;;4990431;28;20065;-72
2022/04/21 04:03:45;;;;;;;5.82;1.80;;;;;;;;;;4990442;28;20074;-72
2022/04/21 04:11:41;;;;;;;3.58;1.70;;;;;;;;;;4989975;28;20555;-71
2022/04/21 04:14:07;;;;;;;4.53;1.65;;;;;;;;;;4989761;28;20546;-71
2022/04/21 04:16:37;;;;;;;2.70;1.60;;;;;;;;;;5005045;28;20089;-72
2022/04/21 04:19:05;;;;;;;3.38;1.70;;;;;;;;;;4990080;28;20153;-71
2022/04/21 04:21:31;;;;;;;3.65;1.75;;;;;;;;;;4989463;28;20039;-71
2022/04/21 04:23:58;;;;;;;2.80;1.60;;;;;;;;;;4989585;28;20050;-71
2022/04/21 04:26:24;;;;;;;9.63;2.13;;;;;;;;;;4983531;28;20082;-70
2022/04/21 04:28:50;;;;;;;5.40;1.67;;;;;;;;;;5004755;28;20137;-69
2022/04/21 04:31:16;;;;;;;6.38;2.30;;;;;;;;;;4989637;28;20078;-73
2022/04/21 04:33:42;;;;;;;4.75;1.50;;;;;;;;;;4989400;28;20050;-71
2022/04/21 04:36:13;;;;;;;6.40;1.85;;;;;;;;;;4989198;28;20050;-71
2022/04/21 04:38:39;;;;;;;8.52;2.47;;;;;;;;;;4989486;28;20464;-71
2022/04/21 04:43:50;;;;;;;5.00;1.92;;;;;;;;;;4989167;28;20054;-70
2022/04/21 04:46:35;;;;;;;4.72;1.80;;;;;;;;;;4989380;28;20043;-70
2022/04/21 04:49:05;;;;;;;3.22;1.50;;;;;;;;;;5004569;28;20054;-70
2022/04/21 04:51:31;;;;;;;3.38;2.10;;;;;;;;;;4989550;28;20514;-70
2022/04/21 04:53:58;;;;;;;4.05;1.80;;;;;;;;;;4989328;28;20352;-70
2022/04/21 04:56:24;;;;;;;3.08;1.70;;;;;;;;;;4989337;28;20133;-70
2022/04/21 04:58:51;;;;;;;3.33;1.88;;;;;;;;;;4988927;28;20047;-70
2022/04/21 05:01:20;;;;;;;3.40;1.85;;;;;;;;;;5003928;28;20101;-70
2022/04/21 05:03:46;;;;;;;3.85;1.90;;;;;;;;;;4989329;28;20055;-70
2022/04/21 05:06:12;;;;;;;4.28;2.17;;;;;;;;;;4989385;28;20140;-71
2022/04/21 05:08:39;;;;;;;3.83;1.80;;;;;;;;;;4988643;28;20046;-71
2022/04/21 05:11:05;;;;;;;4.05;2.00;;;;;;;;;;4989012;28;20046;-70
2022/04/21 05:13:31;;;;;;;6.07;2.20;;;;;;;;;;4989358;28;20058;-70
2022/04/21 05:15:57;;;;;;;5.65;1.98;;;;;;;;;;4989105;28;20137;-70
2022/04/21 05:18:23;;;;;;;7.25;1.65;;;;;;;;;;4987820;28;20440;-70
2022/04/21 05:20:50;;;;;;;4.32;1.60;;;;;;;;;;4989239;28;20110;-70
2022/04/21 05:23:17;;;;;;;5.05;1.80;;;;;;;;;;4988938;28;20464;-71
2022/04/21 05:25:43;;;;;;;6.20;1.85;;;;;;;;;;4988988;28;20500;-71
2022/04/21 05:28:09;;;;;;;3.45;1.45;;;;;;;;;;5004479;28;20438;-71
2022/04/21 05:33:24;;;;;;;4.18;1.98;;;;;;;;;;4988760;28;20057;-70
2022/04/21 05:35:50;;;;;;;3.78;1.63;;;;;;;;;;4988781;28;20050;-71
2022/04/21 05:38:17;;;;;;;12.73;2.42;;;;;;;;;;4988211;28;20058;-72
2022/04/21 05:40:43;;;;;;;5.45;1.67;;;;;;;;;;4989371;28;20129;-73
2022/04/21 05:43:14;;;;;;;5.60;1.92;;;;;;;;;;4989105;28;20050;-73
2022/04/21 05:45:41;;;;;;;5.25;2.00;;;;;;;;;;4989304;28;20053;-73
2022/04/21 05:48:08;;;;;;;7.18;1.85;;;;;;;;;;4988530;28;20780;-73
2022/04/21 05:50:34;;;;;;;3.72;1.83;;;;;;;;;;4989476;28;20053;-73
2022/04/21 05:53:02;;;;;;;3.13;1.50;;;;;;;;;;4988997;28;20408;-71
2022/04/21 05:55:34;;;;;;;3.97;1.45;;;;;;;;;;4988890;28;20144;-73
2022/04/21 05:58:00;;;;;;;4.57;1.75;;;;;;;;;;4988952;28;20113;-72
2022/04/21 06:00:26;;;;;;;4.63;1.58;;;;;;;;;;5003599;28;20073;-73
2022/04/21 06:02:52;;;;;;;4.97;1.70;;;;;;;;;;4988078;28;20042;-73
2022/04/21 06:05:18;;;;;;;6.57;2.00;;;;;;;;;;4989245;28;20408;-73
2022/04/21 06:07:44;;;;;;;4.18;1.67;;;;;;;;;;4988796;28;20622;-71
2022/04/21 06:10:10;;;;;;;5.22;1.90;;;;;;;;;;4988806;28;20046;-73
2022/04/21 06:12:36;;;;;;;4.75;1.63;;;;;;;;;;4990770;28;20081;-73
2022/04/21 06:15:03;;;;;;;5.93;1.50;;;;;;;;;;4992108;28;20046;-72
2022/04/21 06:17:29;;;;;;;4.88;1.40;;;;;;;;;;4991235;28;20046;-72
2022/04/21 06:19:56;;;;;;;3.28;1.48;;;;;;;;;;4992601;28;20117;-70
2022/04/21 06:22:22;;;;;;;4.28;1.42;;;;;;;;;;4992584;28;20042;-73
2022/04/21 06:24:48;;;;;;;5.32;1.42;;;;;;;;;;4992409;28;20495;-72
2022/04/21 06:27:14;;;;;;;4.75;1.25;;;;;;;;;;4991992;28;20046;-71
2022/04/21 06:29:40;;;;;;;4.13;1.55;;;;;;;;;;4992212;28;20050;-72
2022/04/21 06:32:06;;;;;;;7.72;2.53;;;;;;;;;;4992140;28;20046;-72
2022/04/21 06:34:32;;;;;;;4.45;1.67;;;;;;;;;;4992548;28;20077;-72
2022/04/21 06:37:00;;;;;;;3.65;1.52;;;;;;;;;;4991557;28;20061;-74
2022/04/21 06:39:26;;;;;;;3.78;1.55;;;;;;;;;;4993485;28;20488;-73
2022/04/21 06:41:52;;;;;;;4.18;1.45;;;;;;;;;;4999078;28;20061;-73
2022/04/21 06:49:52;;;;;;;4.97;1.70;;;;;;;;;;4993440;28;20050;-74
2022/04/21 06:52:18;;;;;;;2.63;1.50;;;;;;;;;;4992806;28;20046;-73
2022/04/21 06:54:44;;;;;;;5.13;1.55;;;;;;;;;;4992139;28;20053;-73
2022/04/21 06:57:10;;;;;;;4.72;1.48;;;;;;;;;;4992063;28;20049;-73
2022/04/21 06:59:37;;;;;;;6.05;1.52;;;;;;;;;;4991891;28;20070;-73
2022/04/21 07:02:04;;;;;;;3.80;1.35;;;;;;;;;;4991968;28;20427;-71
2022/04/21 07:04:30;;;;;;;3.55;1.58;;;;;;;;;;4992270;28;20049;-71
2022/04/21 07:06:56;;;;;;;5.03;2.80;;;;;;;;;;4991641;28;20579;-71
2022/04/21 07:09:22;;;;;;;5.07;1.73;;;;;;;;;;4991369;28;20093;-69
2022/04/21 07:11:48;;;;;;;5.05;1.50;;;;;;;;;;4991036;28;20049;-69
2022/04/21 07:14:14;;;;;;;4.07;1.75;;;;;;;;;;4991326;28;20065;-68
2022/04/21 07:16:40;;;;;;;5.50;1.52;;;;;;;;;;4990395;28;20064;-69
2022/04/21 07:19:06;;;;;;;3.03;1.65;;;;;;;;;;4991108;28;20448;-69
2022/04/21 07:21:33;;;;;;;3.58;1.50;;;;;;;;;;4991298;28;20475;-69
2022/04/21 07:23:59;;;;;;;3.42;1.40;;;;;;;;;;4990187;28;20104;-71
2022/04/21 07:26:25;;;;;;;2.58;1.27;;;;;;;;;;4988483;28;20134;-71
2022/04/21 07:28:51;;;;;;;2.65;1.27;;;;;;;;;;4990712;28;20046;-70
2022/04/21 07:31:17;;;;;;;1.45;1.00;;;;;;;;;;4990243;28;20042;-70
2022/04/21 07:33:43;;;;;;;2.28;1.20;;;;;;;;;;4990414;28;20042;-69
2022/04/21 07:36:09;;;;;;;4.18;1.30;;;;;;;;;;4990279;28;20108;-69
2022/04/21 07:38:36;;;;;;;3.42;1.50;;;;;;;;;;4990528;28;20150;-70
2022/04/21 07:41:03;;;;;;;3.80;1.60;;;;;;;;;;4990783;28;20050;-69
2022/04/21 07:43:29;;;;;;;2.92;1.55;;;;;;;;;;4990743;28;20107;-70
2022/04/21 07:45:55;;;;;;;2.25;1.30;;;;;;;;;;4990171;28;20046;-70
2022/04/21 07:48:21;;;;;;;2.45;1.35;;;;;;;;;;4990172;28;20046;-70
2022/04/21 07:50:47;;;;;;;3.13;1.20;;;;;;;;;;4989268;28;20053;-70
2022/04/21 07:53:13;;;;;;;1.75;0.90;;;;;;;;;;4990486;28;20054;-71
2022/04/21 07:55:39;;;;;;;2.50;1.40;;;;;;;;;;4989957;28;20053;-68
2022/04/21 07:58:06;;;;;;;2.53;1.30;;;;;;;;;;4990391;28;20046;-71
2022/04/21 08:00:36;;;;;;;2.20;1.20;;;;;;;;;;4990413;28;20057;-70
2022/04/21 08:03:02;;;;;;;1.85;1.30;;;;;;;;;;4989373;28;20112;-71
2022/04/21 08:05:28;;;;;;;1.70;1.27;;;;;;;;;;4990321;28;20046;-73
2022/04/21 08:07:54;;;;;;;1.58;1.10;;;;;;;;;;4989685;28;20629;-72
2022/04/21 08:10:21;;;;;;;2.55;1.10;;;;;;;;;;4989860;28;20189;-72
2022/04/21 08:12:50;;;;;;;2.42;1.20;;;;;;;;;;4990081;28;20125;-74
2022/04/21 08:15:23;;;;;;;2.17;1.13;;;;;;;;;;4990387;28;20054;-72
2022/04/21 08:17:50;;;;;;;2.22;1.27;;;;;;;;;;4990099;28;20099;-72
2022/04/21 08:20:16;;;;;;;2.53;1.02;;;;;;;;;;4988071;28;20108;-73
2022/04/21 08:22:43;;;;;;;2.15;1.05;;;;;;;;;;4990062;28;20042;-71
2022/04/21 08:33:24;;;;;;;2.63;1.08;;;;;;;;;;4989755;28;20050;-71
2022/04/21 08:35:51;;;;;;;1.63;1.15;;;;;;;;;;4988515;28;20526;-70
2022/04/21 08:38:18;;;;;;;1.60;1.05;;;;;;;;;;4989802;28;20397;-72
2022/04/21 08:40:51;;;;;;;2.03;1.10;;;;;;;;;;4989651;28;20504;-70
2022/04/21 08:43:17;;;;;;;2.92;1.30;;;;;;;;;;4988322;28;20046;-72
2022/04/21 08:45:44;;;;;;;2.05;1.27;;;;;;;;;;4988695;28;20043;-72
2022/04/21 08:48:11;;;;;;;1.88;1.20;;;;;;;;;;4988879;28;20069;-69
2022/04/21 08:50:38;;;;;;;3.35;1.20;;;;;;;;;;4988938;28;20053;-69
2022/04/21 08:53:08;;;;;;;2.60;1.05;;;;;;;;;;4989070;28;20038;-70
2022/04/21 08:55:34;;;;;;;2.58;1.10;;;;;;;;;;4987041;28;20496;-70
2022/04/21 08:58:00;;;;;;;1.73;1.05;;;;;;;;;;4989342;28;20412;-70
2022/04/21 09:00:27;;;;;;;2.25;1.25;;;;;;;;;;4989288;28;20138;-70
2022/04/21 09:02:53;;;;;;;1.58;1.15;;;;;;;;;;4989626;28;20057;-70
2022/04/21 09:05:22;;;;;;;1.60;1.00;;;;;;;;;;4988065;28;20407;-69
2022/04/21 09:07:48;;;;;;;1.73;1.00;;;;;;;;;;4988806;28;20058;-69
2022/04/21 09:10:15;;;;;;;1.38;1.02;;;;;;;;;;4989551;28;20050;-69
2022/04/21 09:12:47;;;;;;;2.08;1.30;;;;;;;;;;4988999;28;20121;-69
2022/04/21 09:15:15;;;;;;;2.05;1.30;;;;;;;;;;4988964;28;20467;-71
2022/04/21 09:17:45;;;;;;;2.38;1.25;;;;;;;;;;4988898;28;20046;-71
2022/04/21 09:20:12;;;;;;;2.83;1.13;;;;;;;;;;4988249;28;20047;-69
2022/04/21 09:22:42;;;;;;;1.98;0.95;;;;;;;;;;4987901;28;20042;-70
2022/04/21 09:25:09;;;;;;;3.67;1.40;;;;;;;;;;4968738;28;20074;-70
2022/04/21 09:27:39;;;;;;;2.55;0.90;;;;;;;;;;4969073;28;20413;-71
2022/04/21 09:30:05;;;;;;;2.20;1.10;;;;;;;;;;4950321;28;20051;-70
2022/04/21 09:32:32;;;;;;;3.00;1.25;;;;;;;;;;4949056;28;20047;-72
2022/04/21 09:34:58;;;;;;;3.38;1.27;;;;;;;;;;4950706;28;20047;-71
2022/04/21 09:37:24;;;;;;;3.67;1.40;;;;;;;;;;4966967;28;20532;-70
2022/04/21 09:39:51;;;;;;;3.70;1.10;;;;;;;;;;4969452;28;20077;-70
2022/04/21 09:42:27;;;;;;;3.10;1.00;;;;;;;;;;4970007;28;20046;-69
2022/04/21 09:47:37;;;;;;;3.40;1.30;;;;;;;;;;4972622;28;20544;-69
2022/04/21 09:50:13;;;;;;;3.10;1.20;;;;;;;;;;4973179;28;20047;-69
2022/04/21 09:52:46;;;;;;;2.30;1.10;;;;;;;;;;4972296;28;20083;-69
2022/04/21 09:55:26;;;;;;;2.00;1.10;;;;;;;;;;4973426;28;20456;-69
2022/04/21 09:57:52;;;;;;;1.50;1.00;;;;;;;;;;4973370;28;20057;-71
2022/04/21 10:00:22;;;;;;;2.25;1.13;;;;;;;;;;4973650;28;20047;-70
2022/04/21 10:02:49;;;;;;;2.17;1.10;;;;;;;;;;4972997;28;20456;-70
2022/04/21 10:05:16;;;;;;;4.05;1.10;;;;;;;;;;4971415;28;20169;-70
2022/04/21 10:07:42;;;;;;;1.42;1.05;;;;;;;;;;4972246;28;20051;-71
2022/04/21 10:10:08;;;;;;;1.92;1.20;;;;;;;;;;4972447;28;20053;-71
2022/04/21 10:12:35;;;;;;;1.50;0.80;;;;;;;;;;4972940;28;20133;-70
2022/04/21 10:15:02;;;;;;;2.55;1.20;;;;;;;;;;4972116;28;20045;-70
2022/04/21 10:17:28;;;;;;;1.70;1.05;;;;;;;;;;4973178;28;20055;-70
2022/04/21 10:19:54;;;;;;;3.40;1.25;;;;;;;;;;4972644;28;20046;-70
2022/04/21 10:22:20;;;;;;;1.55;0.90;;;;;;;;;;4972784;28;20069;-69
2022/04/21 10:24:48;;;;;;;1.77;1.00;;;;;;;;;;4972078;28;20046;-70
2022/04/21 10:27:37;;;;;;;2.67;0.95;;;;;;;;;;4972805;28;20401;-71
2022/04/21 10:30:03;;;;;;;;;;;;;;;;;;4940340;28;20138;-71
2022/04/21 10:32:45;;;;;;;1.45;0.90;;;;;;;;;;4953512;28;19933;-71
2022/04/21 10:35:24;;;;;;;2.35;1.20;;;;;;;;;;4953297;28;20537;-71
2022/04/21 10:38:09;;;;;;;1.55;0.90;;;;;;;;;;4953098;28;20420;-71
2022/04/21 10:40:53;;;;;;;2.85;1.40;;;;;;;;;;4952748;28;20051;-72
2022/04/21 10:43:19;;;;;;;1.20;0.88;;;;;;;;;;4971455;28;20526;-72
2022/04/21 10:46:03;;;;;;;2.40;1.10;;;;;;;;;;4970952;28;20047;-72
2022/04/21 10:48:49;;;;;;;1.77;1.05;;;;;;;;;;4972299;28;20129;-71
2022/04/21 10:51:34;;;;;;;1.88;1.25;;;;;;;;;;4972538;28;20054;-69
2022/04/21 10:59:31;;;;;;;1.77;1.40;;;;;;;;;;4970861;28;20520;-70
2022/04/21 11:02:11;;;;;;;2.45;1.35;;;;;;;;;;4971793;28;20453;-71
2022/04/21 11:04:37;;;;;;;2.08;1.40;;;;;;;;;;4967952;28;20409;-70
2022/04/21 11:07:12;;;;;;;1.92;1.30;;;;;;;;;;4972187;28;20058;-70
2022/04/21 11:09:50;;;;;;;2.00;1.30;;;;;;;;;;4953757;28;20039;-71
2022/04/21 11:12:17;;;;;;;2.28;1.30;;;;;;;;;;4971710;28;20080;-71
2022/04/21 11:14:44;;;;;;;2.28;1.15;;;;;;;;;;4971715;28;20442;-71
2022/04/21 11:17:10;;;;;;;1.90;1.33;;;;;;;;;;4970459;28;20516;-70
2022/04/21 11:19:40;;;;;;;2.40;1.45;;;;;;;;;;4971423;28;20089;-70
2022/04/21 11:22:10;;;;;;;1.85;1.33;;;;;;;;;;4971494;28;20055;-70
2022/04/21 11:24:54;;;;;;;2.40;1.50;;;;;;;;;;4970977;28;20413;-70
2022/04/21 11:27:21;;;;;;;2.45;1.40;;;;;;;;;;4971540;28;20085;-71
2022/04/21 11:29:47;;;;;;;3.55;1.70;;;;;;;;;;4971386;28;20049;-71
2022/04/21 11:32:16;;;;;;;1.98;1.25;;;;;;;;;;4970876;28;20125;-70
2022/04/21 11:34:56;;;;;;;1.77;1.30;;;;;;;;;;4971605;28;20408;-71
2022/04/21 11:37:22;;;;;;;3.45;1.48;;;;;;;;;;4971541;28;20077;-71
2022/04/21 11:39:48;;;;;;;2.05;1.40;;;;;;;;;;4971640;28;20043;-71
2022/04/21 11:42:27;;;;;;;2.72;1.45;;;;;;;;;;4971723;28;20054;-71
2022/04/21 11:44:54;;;;;;;2.65;1.30;;;;;;;;;;4969623;28;20059;-72
2022/04/21 11:47:20;;;;;;;12.35;1.60;;;;;;;;;;4970952;28;20347;-70
2022/04/21 11:50:02;;;;;;;2.95;1.30;;;;;;;;;;4970916;28;20050;-71
2022/04/21 11:52:28;;;;;;;4.50;1.65;;;;;;;;;;4971950;28;20145;-71
2022/04/21 11:55:04;;;;;;;2.33;1.45;;;;;;;;;;4970809;28;20086;-73
2022/04/21 11:57:43;;;;;;;2.85;1.33;;;;;;;;;;4971745;28;20421;-70
2022/04/21 12:00:10;;;;;;;2.85;1.70;;;;;;;;;;4971730;28;20054;-70
2022/04/21 12:08:11;;;;;;;4.82;1.98;;;;;;;;;;4970772;28;20054;-70
2022/04/21 12:10:38;;;;;;;3.95;1.52;;;;;;;;;;4971090;28;20057;-71
2022/04/21 12:13:04;;;;;;;4.72;1.45;;;;;;;;;;4970836;28;20069;-71
2022/04/21 12:15:31;;;;;;;3.17;1.73;;;;;;;;;;4971077;28;20038;-72
2022/04/21 12:18:00;;;;;;;5.20;2.03;;;;;;;;;;4970220;28;20087;-72
2022/04/21 12:20:27;;;;;;;4.82;1.52;;;;;;;;;;4970575;28;20069;-71
2022/04/21 12:22:54;;;;;;;2.00;1.42;;;;;;;;;;4970421;28;20043;-72
2022/04/21 12:25:28;;;;;;;2.28;1.20;;;;;;;;;;4970905;28;20416;-73
2022/04/21 12:27:54;;;;;;;3.55;1.83;;;;;;;;;;4952773;28;20166;-71
2022/04/21 12:30:20;;;;;;;4.30;1.38;;;;;;;;;;4970751;28;20142;-71
2022/04/21 12:32:49;;;;;;;2.95;1.52;;;;;;;;;;4969325;28;20042;-71
2022/04/21 12:35:15;;;;;;;3.83;1.60;;;;;;;;;;4969705;28;20225;-70
2022/04/21 12:37:43;;;;;;;2.10;1.52;;;;;;;;;;4968881;28;20105;-71
2022/04/21 12:40:10;;;;;;;2.28;1.38;;;;;;;;;;4970477;28;20054;-71
2022/04/21 12:42:40;;;;;;;1.98;1.40;;;;;;;;;;4970136;28;20097;-71
2022/04/21 12:45:07;;;;;;;2.03;1.20;;;;;;;;;;4970287;28;20054;-71
2022/04/21 12:47:42;;;;;;;3.05;1.20;;;;;;;;;;4969825;28;20056;-71
2022/04/21 12:50:09;;;;;;;2.50;1.30;;;;;;;;;;4970002;28;20170;-72
2022/04/21 12:53:01;;;;;;;1.73;1.00;;;;;;;;;;4970101;28;20368;-72
2022/04/21 12:55:28;;;;;;;2.17;1.30;;;;;;;;;;4967441;28;20389;-72
2022/04/21 12:58:05;;;;;;;2.20;1.55;;;;;;;;;;4970153;28;20086;-71
2022/04/21 13:00:32;;;;;;;2.28;1.40;;;;;;;;;;4969739;28;20130;-71
2022/04/21 13:02:58;;;;;;;3.97;1.65;;;;;;;;;;4969681;28;20046;-70
2022/04/21 13:05:24;;;;;;;4.55;1.52;;;;;;;;;;4969857;28;20520;-70
2022/04/21 13:07:50;;;;;;;17.52;1.90;;;;;;;;;;4969652;28;20081;-71
2022/04/21 13:10:16;;;;;;;3.45;1.50;;;;;;;;;;4969572;28;20471;-70
2022/04/21 13:12:43;;;;;;;3.15;1.30;;;;;;;;;;4969906;28;20085;-70
2022/04/21 13:15:09;;;;;;;2.38;1.23;;;;;;;;;;4969861;28;20054;-70
2022/04/21 13:17:35;;;;;;;4.78;1.50;;;;;;;;;;4969959;28;20432;-71
2022/04/21 13:20:01;;;;;;;4.95;1.48;;;;;;;;;;4969583;28;20057;-70
2022/04/21 13:22:27;;;;;;;3.83;1.45;;;;;;;;;;4973074;28;20156;-70
2022/04/21 13:24:53;;;;;;;9.35;1.45;;;;;;;;;;4972746;28;20101;-71
2022/04/21 13:27:22;;;;;;;3.88;1.20;;;;;;;;;;4972500;28;20413;-71
2022/04/21 13:29:48;;;;;;;3.08;1.50;;;;;;;;;;4973285;28;20116;-71
2022/04/21 13:34:59;;;;;;;5.28;1.48;;;;;;;;;;4973669;28;20050;-70
2022/04/21 13:37:25;;;;;;;4.03;1.42;;;;;;;;;;4973473;28;20058;-70
2022/04/21 13:39:51;;;;;;;4.68;1.42;;;;;;;;;;4973280;28;20134;-70
2022/04/21 13:42:17;;;;;;;6.20;1.70;;;;;;;;;;4973211;28;20082;-70
2022/04/21 13:44:43;;;;;;;2.78;1.48;;;;;;;;;;4973135;28;20078;-70
2022/04/21 13:47:09;;;;;;;1.88;1.10;;;;;;;;;;4973234;28;20520;-70
2022/04/21 13:49:35;;;;;;;5.18;1.60;;;;;;;;;;4973129;28;20051;-72
2022/04/21 13:52:01;;;;;;;6.20;1.92;;;;;;;;;;4972896;28;20465;-72
2022/04/21 13:54:28;;;;;;;4.00;1.58;;;;;;;;;;4973406;28;20129;-71
2022/04/21 13:56:54;;;;;;;8.48;1.95;;;;;;;;;;4970970;28;20130;-70
2022/04/21 13:59:21;;;;;;;8.07;1.60;;;;;;;;;;4972333;28;20408;-70
2022/04/21 14:01:48;;;;;;;6.93;2.10;;;;;;;;;;4972951;28;20125;-70
2022/04/21 14:04:14;;;;;;;6.95;2.40;;;;;;;;;;4972784;28;20070;-70
2022/04/21 14:06:40;;;;;;;4.45;1.45;;;;;;;;;;4972941;28;20126;-70
2022/04/21 14:09:07;;;;;;;8.20;2.08;;;;;;;;;;4972466;28;20061;-70
2022/04/21 14:11:34;;;;;;;4.80;1.70;;;;;;;;;;4973076;28;20082;-71
2022/04/21 14:14:00;;;;;;;4.82;1.90;;;;;;;;;;4972648;28;20057;-71
2022/04/21 14:16:26;;;;;;;4.10;1.60;;;;;;;;;;4972851;28;20054;-70
2022/04/21 14:18:53;;;;;;;5.90;2.00;;;;;;;;;;4971847;28;20093;-72
2022/04/21 14:21:20;;;;;;;2.85;1.55;;;;;;;;;;4972790;28;20105;-72
2022/04/21 14:23:46;;;;;;;5.07;1.90;;;;;;;;;;4972805;28;20101;-71
2022/04/21 14:26:14;;;;;;;2.90;1.50;;;;;;;;;;4971432;28;20050;-71
2022/04/21 14:28:40;;;;;;;3.35;1.50;;;;;;;;;;4972074;28;20043;-71
2022/04/21 14:31:08;;;;;;;3.95;1.85;;;;;;;;;;4972309;28;20047;-71
2022/04/21 14:33:35;;;;;;;3.92;2.13;;;;;;;;;;4971138;28;20047;-72
2022/04/21 14:36:05;;;;;;;4.65;2.13;;;;;;;;;;4972310;28;20055;-70
2022/04/21 14:44:04;;;;;;;4.57;1.80;;;;;;;;;;4971682;28;20614;-72
2022/04/21 14:46:30;;;;;;;2.72;1.67;;;;;;;;;;4972640;28;20125;-72
2022/04/21 14:48:56;;;;;;;3.33;1.77;;;;;;;;;;4972179;28;20045;-72
2022/04/21 14:51:22;;;;;;;4.30;1.90;;;;;;;;;;4970464;28;20413;-72
2022/04/21 14:53:48;;;;;;;3.13;1.58;;;;;;;;;;4971769;28;20046;-72
2022/04/21 14:56:14;;;;;;;5.80;1.80;;;;;;;;;;4971960;28;20039;-71
2022/04/21 14:58:40;;;;;;;3.72;1.92;;;;;;;;;;4971850;28;20492;-71
2022/04/21 15:01:07;;;;;;;3.90;1.80;;;;;;;;;;4970868;28;20559;-72
2022/04/21 15:03:36;;;;;;;3.67;1.98;;;;;;;;;;4972085;28;20053;-72
2022/04/21 15:06:04;;;;;;;4.07;2.28;;;;;;;;;;4971209;28;20042;-70
2022/04/21 15:08:30;;;;;;;4.35;1.92;;;;;;;;;;4971083;28;20046;-72
2022/04/21 15:10:57;;;;;;;4.03;1.95;;;;;;;;;;4969970;28;20042;-71
2022/04/21 15:13:23;;;;;;;4.05;1.77;;;;;;;;;;4968944;28;20558;-70
2022/04/21 15:15:52;;;;;;;4.10;1.95;;;;;;;;;;4969049;28;20050;-72
2022/04/21 15:18:18;;;;;;;15.90;3.00;;;;;;;;;;4969494;28;20050;-72
2022/04/21 15:20:44;;;;;;;8.15;1.90;;;;;;;;;;4969078;28;20046;-73
2022/04/21 15:23:13;;;;;;;7.90;1.77;;;;;;;;;;4969588;28;20061;-72
2022/04/21 15:25:39;;;;;;;;;;;;;;;;;;4967848;28;20122;-72
2022/04/21 15:28:06;;;;;;;5.15;2.05;;;;;;;;;;4969408;28;20024;-72
2022/04/21 15:30:36;;;;;;;4.75;1.75;;;;;;;;;;4970087;28;20038;-72
2022/04/21 15:33:03;;;;;;;7.40;1.85;;;;;;;;;;4968675;28;20047;-72
2022/04/21 15:35:29;;;;;;;3.45;1.80;;;;;;;;;;4969371;28;20047;-72
2022/04/21 15:37:55;;;;;;;3.38;2.05;;;;;;;;;;4968148;28;20062;-72
2022/04/21 15:40:22;;;;;;;8.02;1.90;;;;;;;;;;4969018;28;20046;-72
2022/04/21 15:42:48;;;;;;;4.07;1.70;;;;;;;;;;4968871;28;20484;-72
2022/04/21 15:45:14;;;;;;;10.00;2.53;;;;;;;;;;4969121;28;20535;-72